Terminal Aerodrome Forecast
Issued by NWS Sterling, VA

Home | Current Version | Previous Version | Text Only | Print | Product List | Glossary On
Versions: 1 2 3 4 5 6 7 8 9 10 11 12 13 14 15 16 17 18 19 20 21 22 23 24 25 26 27 28 29
000
FTUS41 KLWX 051720
TAFIAD
TAF
KIAD 051720Z 0518/0624 03010KT P6SM BKN015 OVC025
     FM052200 03007KT P6SM -SHRA OVC040
     FM060500 36005KT 4SM -SHRA OVC008
     FM061000 35010KT 2SM SHRA OVC006
     FM061900 36008KT 5SM -SHRA BKN008 OVC015=

USA.gov is the U.S. government's official web portal to all federal, state and local government web resources and services.